Main page
METAR-TAF:

METAR-TAF

Airports :

Edinburgh, Scotland

Edinburgh Airport

latitude: 55-57N, longitude: 003-21W, elevation: 41 m

Current weather observation

The report was made 27 minutes ago, at 09:20 UTC
Wind 7 kt from the West, varying between Southwest and North/Northwest
Temperature 16°C
Humidity 72%
Pressure 1019 hPa
Visibility 10 km or more
Scattered clouds at a height of 2000 ft

METAR: EGPH 200920Z AUTO 27007KT 230V340 9999 SCT020 16/11 Q1019

Time: 10:47 (09:47 UTC)

Forecast

The report was made 4 hours and 47 minutes ago, at 05:00 UTC
Forecast valid from 20 at 06 UTC to 21 at 06 UTC
Wind 10 kt from the West/Southwest
Visibility 10 km or more
Few clouds at a height of 2000 ft
Becoming
from 20 at 14 UTC to 20 at 17 UTC
Wind 5 kt from variable directions

TAF: EGPH 200500Z 2006/2106 25010KT 9999 FEW020 BECMG 2014/2017 VRB05KT

Weather observations and forecasts of more than 4000 airports (METAR and TAF reports).

The available stations are represented by yellow and red dots on the map.

Hover mouse over dot to see the name of the station.

Then click to see weather observations and forecasts.

To change the map : click on the green buttons with a black cross to zoom in, on the green button with a dash to zoom out, or on the green arrows for adjacent maps.


METAR-TAF: